createdAt,value
2018-03-25T00:01:13.586Z,-0.23
2018-03-25T00:03:41.112Z,-0.30
2018-03-25T00:06:08.599Z,-0.29
2018-03-25T00:08:36.111Z,-0.31
2018-03-25T00:11:03.643Z,-0.30
2018-03-25T00:13:31.141Z,-0.32
2018-03-25T00:15:58.634Z,-0.65
2018-03-25T00:18:26.155Z,-0.30
2018-03-25T00:20:53.658Z,-0.31
2018-03-25T00:23:21.154Z,-0.32
2018-03-25T00:25:48.691Z,-0.31
2018-03-25T00:28:16.187Z,-0.30
2018-03-25T00:30:43.672Z,-0.34
2018-03-25T00:33:11.192Z,-0.49
2018-03-25T00:35:38.707Z,-0.45
2018-03-25T00:38:06.203Z,-0.49
2018-03-25T00:40:33.721Z,-0.42
2018-03-25T00:43:01.222Z,-0.44
2018-03-25T00:45:28.758Z,-0.48
2018-03-25T00:47:56.262Z,-0.52
2018-03-25T00:50:23.771Z,-0.61
2018-03-25T00:52:51.317Z,-0.65
2018-03-25T00:55:18.789Z,-0.70
2018-03-25T00:57:46.288Z,-0.70
2018-03-25T01:00:13.827Z,-0.72
2018-03-25T01:02:41.323Z,-0.72
2018-03-25T01:05:08.840Z,-0.80
2018-03-25T01:07:36.373Z,-0.81
2018-03-25T01:10:03.842Z,-0.83
2018-03-25T01:12:31.357Z,-0.80
2018-03-25T01:14:58.886Z,-0.84
2018-03-25T01:17:26.432Z,-0.86
2018-03-25T01:19:53.920Z,-0.84
2018-03-25T01:22:21.470Z,-0.83
2018-03-25T01:24:48.961Z,-0.81
2018-03-25T01:27:16.486Z,-0.89
2018-03-25T01:29:44.040Z,-0.88
2018-03-25T01:32:11.554Z,-0.84
2018-03-25T01:34:39.042Z,-0.99
2018-03-25T01:37:06.555Z,-0.97
2018-03-25T01:39:34.050Z,-1.06
2018-03-25T01:42:01.578Z,-1.03
2018-03-25T01:44:29.078Z,-1.04
2018-03-25T01:46:56.609Z,-1.01
2018-03-25T01:49:24.097Z,-0.97
2018-03-25T01:51:51.610Z,-0.88
2018-03-25T01:54:19.102Z,-0.79
2018-03-25T01:56:46.629Z,-0.67
2018-03-25T01:59:14.126Z,-0.71
2018-03-25T02:01:41.673Z,-0.80
2018-03-25T02:04:09.163Z,-0.78
2018-03-25T02:06:36.659Z,-0.82
2018-03-25T02:09:04.165Z,-0.78
2018-03-25T02:11:31.655Z,-0.78
2018-03-25T02:13:59.182Z,-0.73
2018-03-25T02:16:26.679Z,-0.76
2018-03-25T02:18:54.199Z,-0.80
2018-03-25T02:21:21.689Z,-0.70
2018-03-25T02:23:49.213Z,-0.63
2018-03-25T02:26:16.708Z,-0.54
2018-03-25T02:28:44.234Z,-0.48
2018-03-25T02:31:11.732Z,-0.50
2018-03-25T02:33:39.271Z,-0.43
2018-03-25T02:36:06.770Z,-0.31
2018-03-25T02:38:34.277Z,-0.35
2018-03-25T02:41:01.762Z,-0.39
2018-03-25T02:43:29.287Z,-0.41
2018-03-25T02:45:56.823Z,-0.35
2018-03-25T02:48:24.335Z,-0.36
2018-03-25T02:50:51.862Z,-0.44
2018-03-25T02:53:19.404Z,-0.43
2018-03-25T02:55:46.898Z,-0.44
2018-03-25T02:58:14.409Z,-0.45
2018-03-25T03:00:41.942Z,-0.49
2018-03-25T03:03:09.426Z,-0.53
2018-03-25T03:05:36.948Z,-0.55
2018-03-25T03:08:04.473Z,-0.54
2018-03-25T03:10:32.020Z,-0.62
2018-03-25T03:12:59.512Z,-0.75
2018-03-25T03:15:27.029Z,-0.82
2018-03-25T03:17:54.519Z,-0.93
2018-03-25T03:20:22.059Z,-0.98
2018-03-25T03:22:49.566Z,-1.02
2018-03-25T03:25:17.085Z,-1.02
2018-03-25T03:27:44.570Z,-1.04
2018-03-25T03:30:12.083Z,-1.05
2018-03-25T03:32:39.606Z,-1.06
2018-03-25T03:35:07.132Z,-1.06
2018-03-25T03:37:34.645Z,-1.05
2018-03-25T03:40:02.173Z,-0.99
2018-03-25T03:42:29.687Z,-1.03
2018-03-25T03:44:57.206Z,-1.06
2018-03-25T03:47:24.715Z,-1.19
2018-03-25T03:49:52.239Z,-1.22
2018-03-25T03:52:19.737Z,-1.23
2018-03-25T03:54:47.303Z,-1.29
2018-03-25T03:57:14.795Z,-1.33
2018-03-25T03:59:42.290Z,-1.33
2018-03-25T04:02:09.839Z,-1.30
2018-03-25T04:04:37.343Z,-1.29
2018-03-25T04:07:04.857Z,-1.29
2018-03-25T04:09:32.350Z,-1.30
2018-03-25T04:11:59.884Z,-1.33
2018-03-25T04:14:27.384Z,-1.38
2018-03-25T04:16:54.903Z,-1.41
2018-03-25T04:19:22.390Z,-1.43
2018-03-25T04:21:49.906Z,-1.46
2018-03-25T04:24:17.406Z,-1.53
2018-03-25T04:26:44.918Z,-1.61
2018-03-25T04:29:12.421Z,-1.57
2018-03-25T04:31:39.950Z,-1.53
2018-03-25T04:34:07.453Z,-1.61
2018-03-25T04:36:35.005Z,-1.57
2018-03-25T04:39:03.226Z,-1.59
2018-03-25T04:41:30.748Z,-1.55
2018-03-25T04:43:58.259Z,-1.59
2018-03-25T04:46:25.782Z,-1.54
2018-03-25T04:48:53.287Z,-1.41
2018-03-25T04:51:20.816Z,-1.32
2018-03-25T04:53:48.314Z,-1.29
2018-03-25T04:56:15.827Z,-1.26
2018-03-25T04:58:43.346Z,-1.26
2018-03-25T05:01:10.847Z,-1.29
2018-03-25T05:03:38.368Z,-1.32
2018-03-25T05:06:05.891Z,-1.36
2018-03-25T05:08:33.414Z,-1.48
2018-03-25T05:11:00.930Z,-1.53
2018-03-25T05:13:28.453Z,-1.51
2018-03-25T05:15:55.951Z,-1.54
2018-03-25T05:18:23.485Z,-1.53
2018-03-25T05:20:50.984Z,-1.54
2018-03-25T05:23:18.513Z,-1.50
2018-03-25T05:25:46.007Z,-1.45
2018-03-25T05:28:13.526Z,-1.40
2018-03-25T05:30:41.076Z,-1.32
2018-03-25T05:33:08.612Z,-1.17
2018-03-25T05:35:36.114Z,-0.99
2018-03-25T05:38:03.639Z,-0.94
2018-03-25T05:40:31.160Z,-0.83
2018-03-25T05:42:58.678Z,-0.79
2018-03-25T05:45:26.162Z,-0.68
2018-03-25T05:47:53.699Z,-0.62
2018-03-25T05:50:21.198Z,-0.50
2018-03-25T05:52:48.682Z,-0.31
2018-03-25T05:55:16.189Z,-0.05
2018-03-25T05:57:43.692Z,0.08
2018-03-25T06:00:11.258Z,0.10
2018-03-25T06:02:38.751Z,0.09
2018-03-25T06:05:06.275Z,0.15
2018-03-25T06:07:33.783Z,0.22
2018-03-25T06:10:01.289Z,0.36
2018-03-25T06:12:28.799Z,0.37
2018-03-25T06:14:56.314Z,0.46
2018-03-25T06:17:23.807Z,0.52
2018-03-25T06:19:51.315Z,0.52
2018-03-25T06:22:18.798Z,0.63
2018-03-25T06:24:46.310Z,0.82
2018-03-25T06:27:13.797Z,1.12
2018-03-25T06:29:41.303Z,1.61
2018-03-25T06:32:08.789Z,1.72
2018-03-25T06:34:36.304Z,2.17
2018-03-25T06:37:03.791Z,3.28
2018-03-25T06:39:31.306Z,4.36
2018-03-25T06:41:58.796Z,5.41
2018-03-25T06:44:26.319Z,4.98
2018-03-25T06:46:53.811Z,5.30
2018-03-25T06:49:21.308Z,5.10
2018-03-25T06:51:48.809Z,5.10
2018-03-25T06:54:16.349Z,5.96
2018-03-25T06:56:43.855Z,6.58
2018-03-25T06:59:11.349Z,6.38
2018-03-25T07:01:38.867Z,6.35
2018-03-25T07:04:06.350Z,7.16
2018-03-25T07:06:33.879Z,7.87
2018-03-25T07:09:01.364Z,8.94
2018-03-25T07:11:28.888Z,8.79
2018-03-25T07:13:56.385Z,10.03
2018-03-25T07:16:23.898Z,10.02
2018-03-25T07:18:51.391Z,10.74
2018-03-25T07:21:18.912Z,10.47
2018-03-25T07:23:46.518Z,10.54
2018-03-25T07:26:14.038Z,10.28
2018-03-25T07:28:41.635Z,10.75
2018-03-25T07:31:09.232Z,11.69
2018-03-25T07:33:36.837Z,12.37
2018-03-25T07:36:04.382Z,10.99
2018-03-25T07:38:31.883Z,10.64
2018-03-25T07:40:59.615Z,10.79
2018-03-25T07:43:27.149Z,10.18
2018-03-25T07:45:54.636Z,10.33
2018-03-25T07:48:22.409Z,10.25
2018-03-25T07:50:51.725Z,10.44
2018-03-25T07:53:19.689Z,10.45
2018-03-25T07:55:47.273Z,10.44
2018-03-25T07:58:14.783Z,10.25
2018-03-25T08:00:42.286Z,10.84
2018-03-25T08:03:09.822Z,11.18
2018-03-25T08:05:37.498Z,11.36
2018-03-25T08:08:05.026Z,11.31
2018-03-25T08:10:32.529Z,11.90
2018-03-25T08:13:00.239Z,11.64
2018-03-25T08:15:27.920Z,11.74
2018-03-25T08:17:55.458Z,12.25
2018-03-25T08:20:22.948Z,13.52
2018-03-25T08:22:50.675Z,14.07
2018-03-25T08:25:18.319Z,13.92
2018-03-25T08:27:45.883Z,13.77
2018-03-25T08:30:13.384Z,13.99
2018-03-25T08:32:40.911Z,14.22
2018-03-25T08:35:08.399Z,14.50
2018-03-25T08:37:35.924Z,14.36
2018-03-25T08:40:03.415Z,14.56
2018-03-25T08:42:30.907Z,16.48
2018-03-25T08:44:58.417Z,16.18
2018-03-25T08:47:26.220Z,15.72
2018-03-25T08:49:53.737Z,16.80
2018-03-25T08:52:21.252Z,15.93
2018-03-25T08:54:48.761Z,15.57
2018-03-25T08:57:16.246Z,15.73
2018-03-25T08:59:43.774Z,15.66
2018-03-25T09:02:11.284Z,16.44
2018-03-25T09:04:38.821Z,17.90
2018-03-25T09:07:06.316Z,20.00
2018-03-25T09:09:33.836Z,18.76
2018-03-25T09:12:01.350Z,17.33
2018-03-25T09:14:28.859Z,17.11
2018-03-25T09:16:56.349Z,17.13
2018-03-25T09:19:23.909Z,17.75
2018-03-25T09:21:51.408Z,17.89
2018-03-25T09:24:18.922Z,18.42
2018-03-25T09:26:46.423Z,17.76
2018-03-25T09:29:13.934Z,18.45
2018-03-25T09:31:41.417Z,18.19
2018-03-25T09:34:08.902Z,19.37
2018-03-25T09:36:36.415Z,18.79
2018-03-25T09:39:03.913Z,18.28
2018-03-25T09:41:31.432Z,17.81
2018-03-25T09:43:58.963Z,18.80
2018-03-25T09:46:26.446Z,18.82
2018-03-25T09:48:53.942Z,18.22
2018-03-25T09:51:21.459Z,14.56
2018-03-25T09:53:48.951Z,16.65
2018-03-25T09:56:16.466Z,17.65
2018-03-25T09:58:43.985Z,17.10
2018-03-25T10:04:16.391Z,17.58
2018-03-25T10:06:43.927Z,19.86
2018-03-25T10:09:11.422Z,20.10
2018-03-25T10:11:38.943Z,18.70
2018-03-25T10:14:06.448Z,19.10
2018-03-25T10:16:33.976Z,20.15
2018-03-25T10:19:01.466Z,19.23
2018-03-25T10:21:28.987Z,18.97
2018-03-25T10:23:56.479Z,16.76
2018-03-25T10:26:23.986Z,15.18
2018-03-25T10:28:51.483Z,16.08
2018-03-25T10:31:19.006Z,16.48
2018-03-25T10:33:46.507Z,16.37
2018-03-25T10:36:14.042Z,17.87
2018-03-25T10:38:41.534Z,18.55
2018-03-25T10:41:09.019Z,17.55
2018-03-25T10:43:36.538Z,16.72
2018-03-25T10:46:04.029Z,17.10
2018-03-25T10:48:31.553Z,17.46
2018-03-25T10:50:59.047Z,19.61
2018-03-25T10:53:26.563Z,21.25
2018-03-25T10:55:54.056Z,19.12
2018-03-25T10:58:21.586Z,19.44
2018-03-25T11:00:49.075Z,19.84
2018-03-25T11:03:16.595Z,18.46
2018-03-25T11:05:44.085Z,19.35
2018-03-25T11:08:11.601Z,19.70
2018-03-25T11:10:39.119Z,19.51
2018-03-25T11:13:06.627Z,20.14
2018-03-25T11:15:34.119Z,21.34
2018-03-25T11:18:01.635Z,20.88
2018-03-25T11:20:29.143Z,20.38
2018-03-25T11:22:56.654Z,18.97
2018-03-25T11:25:24.142Z,18.01
2018-03-25T11:27:51.663Z,18.01
2018-03-25T11:30:19.150Z,17.05
2018-03-25T11:32:46.658Z,16.61
2018-03-25T11:35:14.147Z,17.59
2018-03-25T11:37:41.638Z,18.03
2018-03-25T11:40:09.148Z,17.65
2018-03-25T11:42:36.637Z,16.90
2018-03-25T11:45:04.149Z,16.15
2018-03-25T11:47:31.681Z,15.21
2018-03-25T11:49:59.170Z,14.63
2018-03-25T11:52:26.659Z,13.97
2018-03-25T11:54:54.174Z,13.76
2018-03-25T11:57:21.658Z,13.54
2018-03-25T11:59:49.165Z,13.77
2018-03-25T12:02:16.659Z,15.24
2018-03-25T12:04:44.179Z,16.12
2018-03-25T12:07:11.675Z,16.19
2018-03-25T12:09:39.191Z,16.36
2018-03-25T12:12:06.678Z,16.28
2018-03-25T12:14:34.191Z,16.62
2018-03-25T12:17:01.695Z,16.83
2018-03-25T12:19:29.211Z,17.26
2018-03-25T12:21:56.715Z,16.10
2018-03-25T12:24:24.226Z,16.33
2018-03-25T12:26:51.718Z,17.21
2018-03-25T12:29:19.203Z,17.10
2018-03-25T12:31:46.712Z,15.82
2018-03-25T12:34:14.207Z,15.05
2018-03-25T12:36:41.714Z,14.47
2018-03-25T12:39:09.211Z,14.08
2018-03-25T12:41:36.768Z,14.35
2018-03-25T12:44:04.259Z,14.32
2018-03-25T12:46:31.798Z,14.43
2018-03-25T12:48:59.291Z,14.29
2018-03-25T12:51:26.798Z,14.39
2018-03-25T12:53:54.290Z,14.57
2018-03-25T12:56:21.802Z,14.49
2018-03-25T12:58:49.288Z,14.23
2018-03-25T13:01:16.831Z,13.45
2018-03-25T13:03:44.319Z,13.34
2018-03-25T13:06:11.834Z,13.04
2018-03-25T13:08:39.328Z,12.92
2018-03-25T13:11:06.842Z,12.86
2018-03-25T13:13:34.330Z,13.22
2018-03-25T13:16:01.843Z,12.89
2018-03-25T13:18:29.355Z,12.73
2018-03-25T13:20:56.879Z,13.03
2018-03-25T13:23:24.372Z,13.12
2018-03-25T13:25:51.862Z,12.96
2018-03-25T13:28:19.402Z,13.24
2018-03-25T13:30:46.890Z,13.26
2018-03-25T13:33:14.407Z,13.33
2018-03-25T13:35:41.889Z,13.59
2018-03-25T13:38:09.414Z,13.82
2018-03-25T13:40:36.907Z,13.83
2018-03-25T13:43:04.428Z,13.83
2018-03-25T13:45:31.914Z,13.73
2018-03-25T13:47:59.431Z,13.71
2018-03-25T13:50:26.921Z,13.91
2018-03-25T13:52:54.434Z,13.72
2018-03-25T13:55:21.918Z,13.73
2018-03-25T13:57:49.426Z,13.48
2018-03-25T14:00:16.918Z,13.48
2018-03-25T14:02:44.431Z,13.20
2018-03-25T14:05:11.918Z,13.14
2018-03-25T14:07:39.447Z,13.06
2018-03-25T14:10:06.930Z,13.29
2018-03-25T14:12:34.438Z,13.53
2018-03-25T14:15:02.003Z,13.55
2018-03-25T14:17:29.577Z,13.61
2018-03-25T14:19:57.036Z,13.46
2018-03-25T14:22:24.522Z,13.13
2018-03-25T14:24:52.056Z,13.26
2018-03-25T14:27:19.543Z,13.46
2018-03-25T14:29:47.112Z,13.57
2018-03-25T14:32:14.570Z,13.56
2018-03-25T14:34:42.083Z,13.57
2018-03-25T14:37:09.584Z,13.60
2018-03-25T14:39:37.097Z,13.68
2018-03-25T14:42:04.586Z,13.58
2018-03-25T14:44:32.107Z,13.65
2018-03-25T14:46:59.601Z,13.67
2018-03-25T14:49:27.114Z,13.61
2018-03-25T14:51:54.598Z,13.41
2018-03-25T14:54:22.127Z,13.35
2018-03-25T14:56:49.623Z,13.35
2018-03-25T14:59:17.141Z,13.31
2018-03-25T15:01:44.643Z,13.18
2018-03-25T15:04:12.167Z,13.28
2018-03-25T15:06:39.658Z,13.26
2018-03-25T15:09:07.178Z,13.30
2018-03-25T15:11:34.666Z,13.24
2018-03-25T15:14:02.182Z,13.17
2018-03-25T15:16:29.670Z,13.16
2018-03-25T15:18:57.159Z,12.81
2018-03-25T15:21:24.681Z,12.69
2018-03-25T15:23:52.174Z,12.62
2018-03-25T15:26:19.690Z,12.57
2018-03-25T15:28:47.187Z,12.49
2018-03-25T15:31:14.739Z,12.59
2018-03-25T15:33:42.226Z,12.61
2018-03-25T15:36:09.744Z,12.56
2018-03-25T15:38:37.239Z,12.53
2018-03-25T15:41:04.786Z,12.44
2018-03-25T15:43:32.279Z,12.63
2018-03-25T15:45:59.805Z,12.62
2018-03-25T15:48:27.294Z,12.56
2018-03-25T15:50:54.810Z,12.46
2018-03-25T15:53:22.331Z,12.31
2018-03-25T15:55:49.852Z,12.32
2018-03-25T15:58:17.369Z,12.33
2018-03-25T16:00:44.891Z,12.31
2018-03-25T16:03:12.382Z,12.19
2018-03-25T16:05:39.907Z,12.12
2018-03-25T16:08:07.398Z,12.09
2018-03-25T16:10:34.923Z,12.04
2018-03-25T16:13:02.417Z,11.98
2018-03-25T16:15:29.906Z,11.97
2018-03-25T16:17:57.414Z,11.89
2018-03-25T16:20:24.936Z,11.83
2018-03-25T16:22:52.458Z,11.72
2018-03-25T16:25:19.961Z,11.73
2018-03-25T16:27:47.466Z,11.66
2018-03-25T16:30:14.963Z,11.59
2018-03-25T16:32:42.483Z,11.61
2018-03-25T16:35:09.983Z,11.62
2018-03-25T16:37:37.506Z,11.54
2018-03-25T16:40:04.995Z,11.41
2018-03-25T16:42:32.515Z,11.35
2018-03-25T16:45:00.013Z,11.29
2018-03-25T16:47:27.535Z,11.27
2018-03-25T16:49:55.025Z,11.17
2018-03-25T16:52:22.543Z,11.13
2018-03-25T16:54:50.035Z,11.06
2018-03-25T16:57:17.547Z,10.94
2018-03-25T16:59:45.044Z,10.86
2018-03-25T17:02:12.563Z,10.92
2018-03-25T17:04:40.063Z,10.83
2018-03-25T17:07:07.559Z,10.73
2018-03-25T17:09:35.095Z,10.66
2018-03-25T17:12:02.581Z,10.60
2018-03-25T17:14:30.100Z,10.49
2018-03-25T17:16:57.599Z,10.39
2018-03-25T17:19:25.119Z,10.25
2018-03-25T17:21:52.657Z,10.05
2018-03-25T17:24:20.174Z,9.95
2018-03-25T17:26:47.667Z,9.83
2018-03-25T17:29:15.186Z,9.73
2018-03-25T17:31:42.728Z,9.62
2018-03-25T17:34:10.338Z,9.45
2018-03-25T17:36:37.858Z,9.35
2018-03-25T17:39:05.635Z,9.19
2018-03-25T17:41:33.158Z,9.07
2018-03-25T17:44:00.838Z,8.97
2018-03-25T17:46:28.471Z,8.87
2018-03-25T17:48:56.178Z,8.68
2018-03-25T17:51:23.706Z,8.76
2018-03-25T17:53:51.401Z,8.72
2018-03-25T17:56:18.923Z,8.67
2018-03-25T17:58:46.565Z,8.61
2018-03-25T18:01:14.079Z,8.57
2018-03-25T18:03:41.770Z,8.52
2018-03-25T18:06:09.294Z,8.46
2018-03-25T18:08:36.798Z,8.42
2018-03-25T18:11:04.332Z,8.41
2018-03-25T18:13:31.897Z,8.36
2018-03-25T18:15:59.406Z,8.34
2018-03-25T18:18:26.900Z,8.26
2018-03-25T18:20:56.290Z,8.22
2018-03-25T18:23:22.248Z,8.09
2018-03-25T18:25:49.779Z,7.95
2018-03-25T18:28:17.414Z,7.82
2018-03-25T18:30:44.931Z,7.69
2018-03-25T18:33:12.427Z,7.63
2018-03-25T18:35:39.925Z,7.61
2018-03-25T18:38:07.442Z,7.53
2018-03-25T18:40:35.124Z,7.44
2018-03-25T18:43:02.677Z,7.39
2018-03-25T18:45:30.217Z,7.35
2018-03-25T18:47:57.740Z,7.33
2018-03-25T18:50:25.281Z,6.88
2018-03-25T18:52:52.879Z,6.87
2018-03-25T18:55:20.414Z,6.87
2018-03-25T18:57:47.900Z,6.85
2018-03-25T19:00:15.640Z,6.81
2018-03-25T19:02:43.150Z,6.75
2018-03-25T19:05:10.641Z,6.71
2018-03-25T19:07:38.458Z,6.69
2018-03-25T19:10:05.988Z,6.76
2018-03-25T19:12:33.498Z,6.77
2018-03-25T19:15:00.988Z,6.73
2018-03-25T19:17:28.519Z,6.65
2018-03-25T19:19:56.012Z,6.59
2018-03-25T19:22:23.518Z,6.49
2018-03-25T19:24:51.004Z,6.43
2018-03-25T19:27:18.518Z,6.38
2018-03-25T19:29:46.007Z,6.34
2018-03-25T19:32:13.528Z,6.38
2018-03-25T19:34:41.028Z,6.33
2018-03-25T19:37:08.533Z,6.11
2018-03-25T19:39:36.019Z,6.27
2018-03-25T19:42:03.555Z,6.24
2018-03-25T19:44:31.054Z,6.29
2018-03-25T19:46:58.572Z,6.28
2018-03-25T19:49:26.067Z,6.21
2018-03-25T19:51:53.590Z,6.13
2018-03-25T19:54:21.083Z,6.06
2018-03-25T19:56:48.567Z,5.99
2018-03-25T19:59:16.083Z,5.89
2018-03-25T20:01:43.574Z,5.77
2018-03-25T20:04:11.083Z,5.69
2018-03-25T20:06:38.575Z,5.65
2018-03-25T20:09:06.090Z,5.58
2018-03-25T20:11:33.597Z,5.56
2018-03-25T20:14:01.139Z,5.49
2018-03-25T20:16:28.647Z,5.45
2018-03-25T20:18:56.169Z,5.40
2018-03-25T20:21:23.663Z,5.34
2018-03-25T20:23:51.188Z,5.31
2018-03-25T20:26:18.682Z,5.24
2018-03-25T20:28:46.227Z,5.15
2018-03-25T20:31:13.865Z,5.06
2018-03-25T20:33:41.390Z,4.97
2018-03-25T20:36:09.032Z,4.91
2018-03-25T20:38:36.681Z,4.85
2018-03-25T20:41:04.203Z,4.84
2018-03-25T20:43:31.853Z,4.83
2018-03-25T20:45:59.356Z,4.81
2018-03-25T20:48:27.127Z,5.01
2018-03-25T20:50:54.680Z,4.96
2018-03-25T20:53:22.161Z,4.86
2018-03-25T20:55:49.686Z,4.74
2018-03-25T20:58:17.170Z,4.56
2018-03-25T21:00:44.692Z,4.73
2018-03-25T21:03:12.187Z,4.66
2018-03-25T21:05:39.747Z,4.57
2018-03-25T21:08:07.351Z,4.52
2018-03-25T21:10:34.909Z,4.00
2018-03-25T21:13:02.570Z,4.36
2018-03-25T21:15:30.098Z,4.31
2018-03-25T21:17:57.585Z,4.22
2018-03-25T21:20:25.303Z,4.14
2018-03-25T21:22:52.806Z,4.08
2018-03-25T21:25:20.332Z,4.02
2018-03-25T21:27:48.007Z,3.99
2018-03-25T21:30:15.541Z,3.91
2018-03-25T21:32:43.076Z,3.93
2018-03-25T21:35:10.611Z,3.88
2018-03-25T21:37:38.247Z,3.77
2018-03-25T21:40:05.775Z,3.70
2018-03-25T21:42:33.262Z,3.68
2018-03-25T21:45:00.759Z,3.63
2018-03-25T21:47:28.270Z,3.59
2018-03-25T21:49:55.771Z,3.53
2018-03-25T21:52:23.296Z,3.46
2018-03-25T21:54:50.781Z,3.38
2018-03-25T21:57:18.322Z,3.31
2018-03-25T21:59:45.819Z,3.33
2018-03-25T22:02:13.335Z,3.39
2018-03-25T22:04:40.835Z,3.45
2018-03-25T22:07:08.355Z,3.48
2018-03-25T22:09:35.842Z,3.48
2018-03-25T22:12:03.356Z,3.45
2018-03-25T22:14:30.851Z,3.38
2018-03-25T22:16:58.378Z,3.28
2018-03-25T22:19:25.870Z,3.19
2018-03-25T22:21:53.391Z,3.11
2018-03-25T22:24:20.882Z,3.07
2018-03-25T22:26:48.435Z,3.08
2018-03-25T22:29:15.918Z,3.16
2018-03-25T22:31:43.436Z,3.14
2018-03-25T22:34:10.918Z,3.09
2018-03-25T22:36:38.429Z,3.08
2018-03-25T22:39:05.918Z,2.29
2018-03-25T22:41:33.437Z,3.09
2018-03-25T22:44:00.945Z,3.05
2018-03-25T22:46:28.437Z,3.07
2018-03-25T22:48:55.950Z,3.03
2018-03-25T22:51:23.447Z,2.93
2018-03-25T22:53:50.966Z,2.83
2018-03-25T22:56:18.453Z,2.73
2018-03-25T22:58:45.970Z,2.62
2018-03-25T23:01:13.458Z,2.56
2018-03-25T23:03:40.970Z,2.51
2018-03-25T23:06:08.454Z,2.52
2018-03-25T23:08:35.974Z,2.53
2018-03-25T23:11:03.483Z,2.56
2018-03-25T23:13:31.002Z,2.56
2018-03-25T23:15:58.491Z,2.60
2018-03-25T23:18:25.998Z,2.59
2018-03-25T23:20:53.490Z,2.57
2018-03-25T23:23:21.011Z,2.59
2018-03-25T23:25:48.531Z,2.55
2018-03-25T23:28:16.050Z,2.52
2018-03-25T23:30:43.538Z,2.52
2018-03-25T23:33:11.022Z,2.56
2018-03-25T23:35:38.546Z,2.63
2018-03-25T23:38:06.042Z,2.73
2018-03-25T23:40:33.603Z,2.80
2018-03-25T23:43:01.094Z,2.86
2018-03-25T23:45:28.621Z,2.85
2018-03-25T23:47:56.106Z,2.83
2018-03-25T23:50:23.619Z,2.85
2018-03-25T23:52:51.106Z,2.90
2018-03-25T23:55:18.638Z,2.96
2018-03-25T23:57:46.122Z,3.01
